sensor_id;sensor_type;location;lat;lon;timestamp;P1;durP1;ratioP1;P2;durP2;ratioP2
8500;SDS011;4288;48.484;10.024;2023-05-10T00:01:13;0.80;;;0.80;;
8500;SDS011;4288;48.484;10.024;2023-05-10T00:03:41;1.33;;;1.10;;
8500;SDS011;4288;48.484;10.024;2023-05-10T00:06:08;1.33;;;1.23;;
8500;SDS011;4288;48.484;10.024;2023-05-10T00:08:37;1.07;;;0.97;;
8500;SDS011;4288;48.484;10.024;2023-05-10T00:11:04;1.20;;;1.10;;
8500;SDS011;4288;48.484;10.024;2023-05-10T00:13:32;1.10;;;1.00;;
8500;SDS011;4288;48.484;10.024;2023-05-10T00:15:59;1.20;;;1.10;;
8500;SDS011;4288;48.484;10.024;2023-05-10T00:18:27;2.30;;;1.73;;
8500;SDS011;4288;48.484;10.024;2023-05-10T00:20:54;0.87;;;0.87;;
8500;SDS011;4288;48.484;10.024;2023-05-10T00:23:21;1.47;;;1.00;;
8500;SDS011;4288;48.484;10.024;2023-05-10T00:25:50;1.23;;;0.90;;
8500;SDS011;4288;48.484;10.024;2023-05-10T00:28:17;0.80;;;0.80;;
8500;SDS011;4288;48.484;10.024;2023-05-10T00:30:45;0.90;;;0.90;;
8500;SDS011;4288;48.484;10.024;2023-05-10T00:33:12;1.40;;;0.80;;
8500;SDS011;4288;48.484;10.024;2023-05-10T00:35:39;1.00;;;0.90;;
8500;SDS011;4288;48.484;10.024;2023-05-10T00:38:07;0.80;;;0.80;;
8500;SDS011;4288;48.484;10.024;2023-05-10T00:40:35;0.80;;;0.80;;
8500;SDS011;4288;48.484;10.024;2023-05-10T00:43:04;0.80;;;0.80;;
8500;SDS011;4288;48.484;10.024;2023-05-10T00:45:32;2.43;;;0.90;;
8500;SDS011;4288;48.484;10.024;2023-05-10T00:48:02;1.00;;;0.90;;
8500;SDS011;4288;48.484;10.024;2023-05-10T00:50:30;1.90;;;1.00;;
8500;SDS011;4288;48.484;10.024;2023-05-10T00:52:59;0.77;;;0.77;;
8500;SDS011;4288;48.484;10.024;2023-05-10T00:55:27;0.80;;;0.80;;
8500;SDS011;4288;48.484;10.024;2023-05-10T00:57:54;0.80;;;0.80;;
8500;SDS011;4288;48.484;10.024;2023-05-10T01:00:24;0.87;;;0.87;;
8500;SDS011;4288;48.484;10.024;2023-05-10T01:02:52;0.80;;;0.80;;
8500;SDS011;4288;48.484;10.024;2023-05-10T01:05:20;0.90;;;0.87;;
8500;SDS011;4288;48.484;10.024;2023-05-10T01:07:47;0.90;;;0.90;;
8500;SDS011;4288;48.484;10.024;2023-05-10T01:10:15;1.07;;;1.00;;
8500;SDS011;4288;48.484;10.024;2023-05-10T01:12:43;3.40;;;0.90;;
8500;SDS011;4288;48.484;10.024;2023-05-10T01:15:13;1.07;;;1.00;;
8500;SDS011;4288;48.484;10.024;2023-05-10T01:17:44;0.90;;;0.90;;
8500;SDS011;4288;48.484;10.024;2023-05-10T01:20:13;2.40;;;0.93;;
8500;SDS011;4288;48.484;10.024;2023-05-10T01:25:43;0.90;;;0.90;;
8500;SDS011;4288;48.484;10.024;2023-05-10T01:28:52;0.80;;;0.80;;
8500;SDS011;4288;48.484;10.024;2023-05-10T01:32:01;1.07;;;1.07;;
8500;SDS011;4288;48.484;10.024;2023-05-10T01:34:42;1.67;;;0.90;;
8500;SDS011;4288;48.484;10.024;2023-05-10T01:37:20;1.77;;;1.00;;
8500;SDS011;4288;48.484;10.024;2023-05-10T01:39:57;0.93;;;0.83;;
8500;SDS011;4288;48.484;10.024;2023-05-10T01:42:41;0.90;;;0.80;;
8500;SDS011;4288;48.484;10.024;2023-05-10T01:45:14;1.13;;;0.90;;
8500;SDS011;4288;48.484;10.024;2023-05-10T01:47:48;1.13;;;0.90;;
8500;SDS011;4288;48.484;10.024;2023-05-10T01:50:24;1.13;;;0.80;;
8500;SDS011;4288;48.484;10.024;2023-05-10T01:52:54;0.70;;;0.70;;
8500;SDS011;4288;48.484;10.024;2023-05-10T01:55:25;1.33;;;0.70;;
8500;SDS011;4288;48.484;10.024;2023-05-10T01:57:56;0.97;;;0.70;;
8500;SDS011;4288;48.484;10.024;2023-05-10T02:00:29;1.57;;;1.03;;
8500;SDS011;4288;48.484;10.024;2023-05-10T02:02:59;2.00;;;1.03;;
8500;SDS011;4288;48.484;10.024;2023-05-10T02:05:30;1.23;;;0.73;;
8500;SDS011;4288;48.484;10.024;2023-05-10T02:07:59;1.00;;;0.80;;
8500;SDS011;4288;48.484;10.024;2023-05-10T02:10:29;0.97;;;0.70;;
8500;SDS011;4288;48.484;10.024;2023-05-10T02:12:58;0.80;;;0.80;;
8500;SDS011;4288;48.484;10.024;2023-05-10T02:15:27;1.23;;;1.13;;
8500;SDS011;4288;48.484;10.024;2023-05-10T02:17:56;0.83;;;0.83;;
8500;SDS011;4288;48.484;10.024;2023-05-10T02:20:26;4.77;;;1.00;;
8500;SDS011;4288;48.484;10.024;2023-05-10T02:22:55;1.17;;;1.00;;
8500;SDS011;4288;48.484;10.024;2023-05-10T02:25:24;1.37;;;0.90;;
8500;SDS011;4288;48.484;10.024;2023-05-10T02:27:54;1.23;;;0.70;;
8500;SDS011;4288;48.484;10.024;2023-05-10T02:30:23;0.87;;;0.80;;
8500;SDS011;4288;48.484;10.024;2023-05-10T02:32:52;2.57;;;1.00;;
8500;SDS011;4288;48.484;10.024;2023-05-10T02:35:21;1.50;;;1.40;;
8500;SDS011;4288;48.484;10.024;2023-05-10T02:37:50;2.07;;;0.80;;
8500;SDS011;4288;48.484;10.024;2023-05-10T02:40:19;1.07;;;0.60;;
8500;SDS011;4288;48.484;10.024;2023-05-10T02:42:50;2.10;;;1.03;;
8500;SDS011;4288;48.484;10.024;2023-05-10T02:45:21;1.30;;;0.93;;
8500;SDS011;4288;48.484;10.024;2023-05-10T02:47:54;1.10;;;1.00;;
8500;SDS011;4288;48.484;10.024;2023-05-10T02:50:23;2.77;;;0.77;;
8500;SDS011;4288;48.484;10.024;2023-05-10T02:52:54;0.90;;;0.70;;
8500;SDS011;4288;48.484;10.024;2023-05-10T02:55:26;2.30;;;0.83;;
8500;SDS011;4288;48.484;10.024;2023-05-10T02:57:59;1.20;;;1.10;;
8500;SDS011;4288;48.484;10.024;2023-05-10T03:00:28;7.23;;;1.53;;
8500;SDS011;4288;48.484;10.024;2023-05-10T03:02:55;2.20;;;1.00;;
8500;SDS011;4288;48.484;10.024;2023-05-10T03:05:24;1.33;;;0.90;;
8500;SDS011;4288;48.484;10.024;2023-05-10T03:07:51;1.00;;;0.90;;
8500;SDS011;4288;48.484;10.024;2023-05-10T03:10:19;1.17;;;0.80;;
8500;SDS011;4288;48.484;10.024;2023-05-10T03:12:52;1.00;;;1.00;;
8500;SDS011;4288;48.484;10.024;2023-05-10T03:15:33;0.73;;;0.73;;
8500;SDS011;4288;48.484;10.024;2023-05-10T03:18:09;0.73;;;0.73;;
8500;SDS011;4288;48.484;10.024;2023-05-10T03:20:43;0.97;;;0.77;;
8500;SDS011;4288;48.484;10.024;2023-05-10T03:23:17;5.27;;;0.80;;
8500;SDS011;4288;48.484;10.024;2023-05-10T03:25:52;3.10;;;0.90;;
8500;SDS011;4288;48.484;10.024;2023-05-10T03:28:20;1.13;;;0.80;;
8500;SDS011;4288;48.484;10.024;2023-05-10T03:30:51;0.70;;;0.70;;
8500;SDS011;4288;48.484;10.024;2023-05-10T03:33:20;1.00;;;0.70;;
8500;SDS011;4288;48.484;10.024;2023-05-10T03:35:49;0.77;;;0.70;;
8500;SDS011;4288;48.484;10.024;2023-05-10T03:38:16;0.80;;;0.60;;
8500;SDS011;4288;48.484;10.024;2023-05-10T03:40:43;0.60;;;0.60;;
8500;SDS011;4288;48.484;10.024;2023-05-10T03:43:11;0.90;;;0.90;;
8500;SDS011;4288;48.484;10.024;2023-05-10T03:45:38;0.73;;;0.73;;
8500;SDS011;4288;48.484;10.024;2023-05-10T03:48:05;1.33;;;0.53;;
8500;SDS011;4288;48.484;10.024;2023-05-10T03:50:33;0.80;;;0.67;;
8500;SDS011;4288;48.484;10.024;2023-05-10T03:53:01;0.83;;;0.83;;
8500;SDS011;4288;48.484;10.024;2023-05-10T03:55:29;4.00;;;0.90;;
8500;SDS011;4288;48.484;10.024;2023-05-10T03:57:59;1.37;;;0.80;;
8500;SDS011;4288;48.484;10.024;2023-05-10T04:00:26;0.70;;;0.70;;
8500;SDS011;4288;48.484;10.024;2023-05-10T04:02:54;0.70;;;0.70;;
8500;SDS011;4288;48.484;10.024;2023-05-10T04:05:21;0.60;;;0.60;;
8500;SDS011;4288;48.484;10.024;2023-05-10T04:07:48;0.73;;;0.60;;
8500;SDS011;4288;48.484;10.024;2023-05-10T04:10:17;0.80;;;0.70;;
8500;SDS011;4288;48.484;10.024;2023-05-10T04:12:46;0.60;;;0.60;;
8500;SDS011;4288;48.484;10.024;2023-05-10T04:15:13;0.93;;;0.80;;
8500;SDS011;4288;48.484;10.024;2023-05-10T04:17:41;0.90;;;0.73;;
8500;SDS011;4288;48.484;10.024;2023-05-10T04:20:08;1.80;;;0.80;;
8500;SDS011;4288;48.484;10.024;2023-05-10T04:22:36;1.10;;;0.80;;
8500;SDS011;4288;48.484;10.024;2023-05-10T04:25:04;0.70;;;0.60;;
8500;SDS011;4288;48.484;10.024;2023-05-10T04:27:34;0.80;;;0.60;;
8500;SDS011;4288;48.484;10.024;2023-05-10T04:30:02;0.70;;;0.70;;
8500;SDS011;4288;48.484;10.024;2023-05-10T04:32:30;0.60;;;0.60;;
8500;SDS011;4288;48.484;10.024;2023-05-10T04:34:57;0.97;;;0.73;;
8500;SDS011;4288;48.484;10.024;2023-05-10T04:37:24;0.90;;;0.60;;
8500;SDS011;4288;48.484;10.024;2023-05-10T04:39:52;1.63;;;0.70;;
8500;SDS011;4288;48.484;10.024;2023-05-10T04:42:19;0.70;;;0.70;;
8500;SDS011;4288;48.484;10.024;2023-05-10T04:44:48;0.80;;;0.60;;
8500;SDS011;4288;48.484;10.024;2023-05-10T04:47:16;0.80;;;0.73;;
8500;SDS011;4288;48.484;10.024;2023-05-10T04:49:44;0.70;;;0.70;;
8500;SDS011;4288;48.484;10.024;2023-05-10T04:52:11;1.47;;;0.60;;
8500;SDS011;4288;48.484;10.024;2023-05-10T04:54:40;0.63;;;0.63;;
8500;SDS011;4288;48.484;10.024;2023-05-10T04:57:07;1.43;;;1.17;;
8500;SDS011;4288;48.484;10.024;2023-05-10T04:59:35;1.73;;;0.60;;
8500;SDS011;4288;48.484;10.024;2023-05-10T05:02:04;0.60;;;0.60;;
8500;SDS011;4288;48.484;10.024;2023-05-10T05:04:31;0.90;;;0.70;;
8500;SDS011;4288;48.484;10.024;2023-05-10T05:06:59;1.00;;;0.80;;
8500;SDS011;4288;48.484;10.024;2023-05-10T05:09:26;0.63;;;0.63;;
8500;SDS011;4288;48.484;10.024;2023-05-10T05:11:53;0.70;;;0.70;;
8500;SDS011;4288;48.484;10.024;2023-05-10T05:14:21;0.87;;;0.70;;
8500;SDS011;4288;48.484;10.024;2023-05-10T05:16:50;0.60;;;0.60;;
8500;SDS011;4288;48.484;10.024;2023-05-10T05:19:18;3.47;;;0.80;;
8500;SDS011;4288;48.484;10.024;2023-05-10T05:21:46;1.23;;;0.53;;
8500;SDS011;4288;48.484;10.024;2023-05-10T05:24:13;0.67;;;0.67;;
8500;SDS011;4288;48.484;10.024;2023-05-10T05:26:41;0.70;;;0.67;;
8500;SDS011;4288;48.484;10.024;2023-05-10T05:29:08;1.07;;;0.70;;
8500;SDS011;4288;48.484;10.024;2023-05-10T05:31:35;1.10;;;0.80;;
8500;SDS011;4288;48.484;10.024;2023-05-10T05:34:03;0.60;;;0.60;;
8500;SDS011;4288;48.484;10.024;2023-05-10T05:36:31;0.60;;;0.60;;
8500;SDS011;4288;48.484;10.024;2023-05-10T05:39:03;2.00;;;0.77;;
8500;SDS011;4288;48.484;10.024;2023-05-10T05:41:30;0.70;;;0.70;;
8500;SDS011;4288;48.484;10.024;2023-05-10T05:43:57;0.60;;;0.60;;
8500;SDS011;4288;48.484;10.024;2023-05-10T05:46:25;0.90;;;0.70;;
8500;SDS011;4288;48.484;10.024;2023-05-10T05:48:52;1.53;;;0.80;;
8500;SDS011;4288;48.484;10.024;2023-05-10T05:51:19;0.60;;;0.60;;
8500;SDS011;4288;48.484;10.024;2023-05-10T05:53:48;2.30;;;0.63;;
8500;SDS011;4288;48.484;10.024;2023-05-10T05:56:15;2.83;;;0.70;;
8500;SDS011;4288;48.484;10.024;2023-05-10T05:58:49;1.20;;;0.63;;
8500;SDS011;4288;48.484;10.024;2023-05-10T06:01:16;0.97;;;0.73;;
8500;SDS011;4288;48.484;10.024;2023-05-10T06:03:43;2.23;;;0.70;;
8500;SDS011;4288;48.484;10.024;2023-05-10T06:06:11;2.63;;;0.83;;
8500;SDS011;4288;48.484;10.024;2023-05-10T06:08:38;3.83;;;1.87;;
8500;SDS011;4288;48.484;10.024;2023-05-10T06:11:07;11.80;;;4.87;;
8500;SDS011;4288;48.484;10.024;2023-05-10T06:13:34;14.97;;;4.63;;
8500;SDS011;4288;48.484;10.024;2023-05-10T06:16:02;9.37;;;3.40;;
8500;SDS011;4288;48.484;10.024;2023-05-10T06:18:29;9.43;;;4.23;;
8500;SDS011;4288;48.484;10.024;2023-05-10T06:20:57;6.63;;;3.23;;
8500;SDS011;4288;48.484;10.024;2023-05-10T06:23:24;7.20;;;2.63;;
8500;SDS011;4288;48.484;10.024;2023-05-10T06:25:52;5.40;;;2.80;;
8500;SDS011;4288;48.484;10.024;2023-05-10T06:28:21;14.23;;;3.90;;
8500;SDS011;4288;48.484;10.024;2023-05-10T06:30:48;5.80;;;2.80;;
8500;SDS011;4288;48.484;10.024;2023-05-10T06:33:16;9.07;;;2.57;;
8500;SDS011;4288;48.484;10.024;2023-05-10T06:35:43;12.07;;;4.33;;
8500;SDS011;4288;48.484;10.024;2023-05-10T06:38:10;8.07;;;3.80;;
8500;SDS011;4288;48.484;10.024;2023-05-10T06:40:40;11.73;;;5.37;;
8500;SDS011;4288;48.484;10.024;2023-05-10T06:43:08;12.57;;;4.10;;
8500;SDS011;4288;48.484;10.024;2023-05-10T06:45:37;12.40;;;5.10;;
8500;SDS011;4288;48.484;10.024;2023-05-10T06:48:04;24.33;;;7.33;;
8500;SDS011;4288;48.484;10.024;2023-05-10T06:50:31;13.73;;;7.50;;
8500;SDS011;4288;48.484;10.024;2023-05-10T06:52:59;14.80;;;6.10;;
8500;SDS011;4288;48.484;10.024;2023-05-10T06:55:27;23.93;;;6.77;;
8500;SDS011;4288;48.484;10.024;2023-05-10T06:57:55;16.67;;;6.00;;
8500;SDS011;4288;48.484;10.024;2023-05-10T07:00:22;15.47;;;5.87;;
8500;SDS011;4288;48.484;10.024;2023-05-10T07:02:51;9.37;;;4.50;;
8500;SDS011;4288;48.484;10.024;2023-05-10T07:05:19;22.07;;;6.20;;
8500;SDS011;4288;48.484;10.024;2023-05-10T07:07:46;20.10;;;4.70;;
8500;SDS011;4288;48.484;10.024;2023-05-10T07:10:14;10.30;;;4.13;;
8500;SDS011;4288;48.484;10.024;2023-05-10T07:12:41;7.43;;;3.73;;
8500;SDS011;4288;48.484;10.024;2023-05-10T07:15:09;23.37;;;3.40;;
8500;SDS011;4288;48.484;10.024;2023-05-10T07:17:36;13.17;;;3.93;;
8500;SDS011;4288;48.484;10.024;2023-05-10T07:20:06;7.63;;;3.67;;
8500;SDS011;4288;48.484;10.024;2023-05-10T07:22:34;14.53;;;4.73;;
8500;SDS011;4288;48.484;10.024;2023-05-10T07:25:01;10.53;;;3.80;;
8500;SDS011;4288;48.484;10.024;2023-05-10T07:27:30;5.73;;;3.27;;
8500;SDS011;4288;48.484;10.024;2023-05-10T07:29:57;11.33;;;4.00;;
8500;SDS011;4288;48.484;10.024;2023-05-10T07:32:25;8.90;;;3.80;;
8500;SDS011;4288;48.484;10.024;2023-05-10T07:34:52;7.37;;;3.53;;
8500;SDS011;4288;48.484;10.024;2023-05-10T07:37:21;8.90;;;3.50;;
8500;SDS011;4288;48.484;10.024;2023-05-10T07:39:49;10.43;;;3.83;;
8500;SDS011;4288;48.484;10.024;2023-05-10T07:42:16;8.80;;;3.60;;
8500;SDS011;4288;48.484;10.024;2023-05-10T07:44:43;13.47;;;4.10;;
8500;SDS011;4288;48.484;10.024;2023-05-10T07:47:11;11.03;;;4.10;;
8500;SDS011;4288;48.484;10.024;2023-05-10T07:49:38;9.90;;;3.23;;
8500;SDS011;4288;48.484;10.024;2023-05-10T07:52:06;12.57;;;4.20;;
8500;SDS011;4288;48.484;10.024;2023-05-10T07:54:35;12.00;;;3.97;;
8500;SDS011;4288;48.484;10.024;2023-05-10T07:57:03;6.33;;;3.23;;
8500;SDS011;4288;48.484;10.024;2023-05-10T07:59:30;10.13;;;2.73;;
8500;SDS011;4288;48.484;10.024;2023-05-10T08:01:58;13.60;;;3.73;;
8500;SDS011;4288;48.484;10.024;2023-05-10T08:04:25;9.70;;;3.87;;
8500;SDS011;4288;48.484;10.024;2023-05-10T08:06:53;10.57;;;3.80;;
8500;SDS011;4288;48.484;10.024;2023-05-10T08:09:20;8.13;;;3.10;;
8500;SDS011;4288;48.484;10.024;2023-05-10T08:11:50;11.17;;;3.93;;
8500;SDS011;4288;48.484;10.024;2023-05-10T08:14:17;6.00;;;2.77;;
8500;SDS011;4288;48.484;10.024;2023-05-10T08:16:45;7.70;;;2.77;;
8500;SDS011;4288;48.484;10.024;2023-05-10T08:19:12;12.67;;;4.60;;
8500;SDS011;4288;48.484;10.024;2023-05-10T08:21:43;12.50;;;3.67;;
8500;SDS011;4288;48.484;10.024;2023-05-10T08:24:11;8.20;;;3.17;;
8500;SDS011;4288;48.484;10.024;2023-05-10T08:26:38;5.40;;;2.60;;
8500;SDS011;4288;48.484;10.024;2023-05-10T08:29:07;9.87;;;3.93;;
8500;SDS011;4288;48.484;10.024;2023-05-10T08:31:35;9.83;;;3.10;;
8500;SDS011;4288;48.484;10.024;2023-05-10T08:34:02;9.47;;;3.67;;
8500;SDS011;4288;48.484;10.024;2023-05-10T08:36:29;11.67;;;3.87;;
8500;SDS011;4288;48.484;10.024;2023-05-10T08:38:57;6.63;;;2.70;;
8500;SDS011;4288;48.484;10.024;2023-05-10T08:41:25;9.20;;;4.93;;
8500;SDS011;4288;48.484;10.024;2023-05-10T08:43:53;11.77;;;3.67;;
8500;SDS011;4288;48.484;10.024;2023-05-10T08:46:22;6.80;;;2.93;;
8500;SDS011;4288;48.484;10.024;2023-05-10T08:48:50;7.50;;;2.53;;
8500;SDS011;4288;48.484;10.024;2023-05-10T08:51:22;8.47;;;2.40;;
8500;SDS011;4288;48.484;10.024;2023-05-10T08:53:51;8.33;;;2.53;;
8500;SDS011;4288;48.484;10.024;2023-05-10T08:56:19;7.07;;;2.93;;
8500;SDS011;4288;48.484;10.024;2023-05-10T08:58:47;14.53;;;3.20;;
8500;SDS011;4288;48.484;10.024;2023-05-10T09:01:15;11.83;;;3.33;;
8500;SDS011;4288;48.484;10.024;2023-05-10T09:03:45;8.87;;;3.30;;
8500;SDS011;4288;48.484;10.024;2023-05-10T09:06:13;9.13;;;2.30;;
8500;SDS011;4288;48.484;10.024;2023-05-10T09:08:41;6.77;;;2.53;;
8500;SDS011;4288;48.484;10.024;2023-05-10T09:11:09;7.23;;;2.67;;
8500;SDS011;4288;48.484;10.024;2023-05-10T09:13:38;18.87;;;4.63;;
8500;SDS011;4288;48.484;10.024;2023-05-10T09:16:06;7.73;;;2.83;;
8500;SDS011;4288;48.484;10.024;2023-05-10T09:18:33;6.97;;;2.67;;
8500;SDS011;4288;48.484;10.024;2023-05-10T09:21:02;6.13;;;2.27;;
8500;SDS011;4288;48.484;10.024;2023-05-10T09:23:30;6.00;;;3.10;;
8500;SDS011;4288;48.484;10.024;2023-05-10T09:26:03;10.57;;;2.20;;
8500;SDS011;4288;48.484;10.024;2023-05-10T09:28:31;5.13;;;2.40;;
8500;SDS011;4288;48.484;10.024;2023-05-10T09:30:59;4.93;;;2.10;;
8500;SDS011;4288;48.484;10.024;2023-05-10T09:33:27;7.10;;;2.70;;
8500;SDS011;4288;48.484;10.024;2023-05-10T09:35:54;6.87;;;2.10;;
8500;SDS011;4288;48.484;10.024;2023-05-10T09:38:37;6.40;;;2.30;;
8500;SDS011;4288;48.484;10.024;2023-05-10T09:41:16;7.50;;;3.10;;
8500;SDS011;4288;48.484;10.024;2023-05-10T09:43:44;7.60;;;2.40;;
8500;SDS011;4288;48.484;10.024;2023-05-10T09:46:11;5.50;;;1.73;;
8500;SDS011;4288;48.484;10.024;2023-05-10T09:48:40;5.33;;;2.87;;
8500;SDS011;4288;48.484;10.024;2023-05-10T09:51:09;7.47;;;2.40;;
8500;SDS011;4288;48.484;10.024;2023-05-10T09:53:45;6.57;;;2.43;;
8500;SDS011;4288;48.484;10.024;2023-05-10T09:56:18;3.90;;;2.83;;
8500;SDS011;4288;48.484;10.024;2023-05-10T09:59:03;2.40;;;1.90;;
8500;SDS011;4288;48.484;10.024;2023-05-10T10:01:30;6.73;;;1.97;;
8500;SDS011;4288;48.484;10.024;2023-05-10T10:03:58;7.00;;;2.77;;
8500;SDS011;4288;48.484;10.024;2023-05-10T10:06:28;5.00;;;2.00;;
8500;SDS011;4288;48.484;10.024;2023-05-10T10:09:02;10.03;;;1.70;;
8500;SDS011;4288;48.484;10.024;2023-05-10T10:11:30;14.23;;;2.10;;
8500;SDS011;4288;48.484;10.024;2023-05-10T10:13:57;38.10;;;3.43;;
